Time,TemperatureF,DewpointF,PressureIn,WindDirection,WindDirectionDegrees,WindSpeedMPH,WindSpeedGustMPH,Humidity,HourlyPrecipIn,Conditions,Clouds,dailyrainin,SolarRadiationWatts/m^2,SoftwareType,DateUTC
2013-02-06 03:00:00,27.0,20.0,29.89,WSW,253,7.0,-999.0,73,-99.99,,,-99.99,0.180000,,2013-02-06 08:00:00,
2013-02-06 03:53:00,27.0,20.0,29.89,WSW,253,7.0,-999.0,73,-99.99,,,-99.99,0.180000,,2013-02-06 08:53:00,
2013-02-06 04:00:00,27.0,21.0,29.91,WSW,257,7.0,-999.0,77,-99.99,,,-99.99,0.150000,,2013-02-06 09:00:00,
2013-02-06 04:52:00,27.0,21.0,29.91,WSW,257,7.0,-999.0,77,-99.99,,,-99.99,0.150000,,2013-02-06 09:52:00,
2013-02-06 05:00:00,27.0,22.0,29.95,WSW,249,5.0,-999.0,82,-99.99,,,-99.99,0.120000,,2013-02-06 10:00:00,
2013-02-06 05:52:00,27.0,22.0,29.95,WSW,249,5.0,-999.0,82,-99.99,,,-99.99,0.120000,,2013-02-06 10:52:00,
2013-02-06 06:00:00,26.0,23.0,29.95,WSW,244,6.0,-999.0,90,-99.99,,,-99.99,0.120000,,2013-02-06 11:00:00,
2013-02-06 06:53:00,26.0,23.0,29.95,WSW,244,6.0,-999.0,90,-99.99,,,-99.99,0.120000,,2013-02-06 11:53:00,
2013-02-06 07:00:00,26.0,23.0,29.99,WSW,252,6.0,-999.0,89,-99.99,,,-99.99,0.120000,,2013-02-06 12:00:00,
2013-02-06 07:52:00,26.0,23.0,29.99,WSW,252,6.0,-999.0,89,-99.99,,,-99.99,0.120000,,2013-02-06 12:52:00,
2013-02-06 08:00:00,26.0,21.0,30.02,West,270,8.0,-999.0,79,-99.99,,,-99.99,12.130000,,2013-02-06 13:00:00,
2013-02-06 08:52:00,26.0,21.0,30.02,West,270,8.0,-999.0,79,-99.99,,,-99.99,12.130000,,2013-02-06 13:52:00,
2013-02-06 09:00:00,23.0,20.0,30.08,WNW,284,11.0,-999.0,87,-99.99,,,-99.99,48.430000,,2013-02-06 14:00:00,
2013-02-06 09:52:00,23.0,20.0,30.08,WNW,284,11.0,-999.0,87,-99.99,,,-99.99,48.430000,,2013-02-06 14:52:00,
2013-02-06 10:00:00,25.0,16.0,30.11,WNW,298,11.0,-999.0,67,-99.99,,,-99.99,275.000000,,2013-02-06 15:00:00,
2013-02-06 10:52:00,25.0,16.0,30.11,WNW,298,11.0,-999.0,67,-99.99,,,-99.99,275.000000,,2013-02-06 15:52:00,
2013-02-06 11:00:00,26.0,15.0,30.15,NW,306,11.0,-999.0,63,-99.99,,,-99.99,385.299988,,2013-02-06 16:00:00,
2013-02-06 11:52:00,26.0,15.0,30.15,NW,306,11.0,-999.0,63,-99.99,,,-99.99,385.299988,,2013-02-06 16:52:00,
2013-02-06 12:00:00,23.0,16.0,30.17,NW,307,12.0,-999.0,74,-99.99,,,-99.99,355.200012,,2013-02-06 17:00:00,
2013-02-06 12:52:00,23.0,16.0,30.17,NW,307,12.0,-999.0,74,-99.99,,,-99.99,355.200012,,2013-02-06 17:52:00,
2013-02-06 13:00:00,25.0,15.0,30.19,WNW,300,10.0,-999.0,65,-99.99,,,-99.99,530.700012,,2013-02-06 18:00:00,
2013-02-06 13:52:00,25.0,15.0,30.19,WNW,300,10.0,-999.0,65,-99.99,,,-99.99,530.700012,,2013-02-06 18:52:00,
2013-02-06 14:00:00,25.0,10.0,30.21,WNW,302,11.0,-999.0,52,-99.99,,,-99.99,614.200012,,2013-02-06 19:00:00,
2013-02-06 14:52:00,25.0,10.0,30.21,WNW,302,11.0,-999.0,52,-99.99,,,-99.99,614.200012,,2013-02-06 19:52:00,
2013-02-06 15:00:00,25.0,9.0,30.23,WNW,299,9.0,-999.0,50,-99.99,,,-99.99,456.399994,,2013-02-06 20:00:00,
2013-02-06 15:52:00,25.0,9.0,30.23,WNW,299,9.0,-999.0,50,-99.99,,,-99.99,456.399994,,2013-02-06 20:52:00,
2013-02-06 16:00:00,24.0,8.0,30.25,NW,312,9.0,-999.0,50,-99.99,,,-99.99,327.600006,,2013-02-06 21:00:00,
2013-02-06 16:52:00,24.0,8.0,30.25,NW,312,9.0,-999.0,50,-99.99,,,-99.99,327.600006,,2013-02-06 21:52:00,
2013-02-06 17:00:00,23.0,8.0,30.27,NW,321,6.0,-999.0,53,-99.99,,,-99.99,152.300003,,2013-02-06 22:00:00,
2013-02-06 17:52:00,23.0,8.0,30.27,NW,321,6.0,-999.0,53,-99.99,,,-99.99,152.300003,,2013-02-06 22:52:00,
2013-02-06 18:00:00,19.0,8.0,30.29,NNW,333,4.0,-999.0,61,-99.99,,,-99.99,9.080000,,2013-02-06 23:00:00,
2013-02-06 18:52:00,19.0,8.0,30.29,NNW,333,4.0,-999.0,61,-99.99,,,-99.99,9.080000,,2013-02-06 23:52:00,
2013-02-06 19:00:00,17.0,7.0,30.31,NW,311,2.0,-999.0,65,-99.99,,,-99.99,0.090000,,2013-02-07 00:00:00,
2013-02-06 19:52:00,17.0,7.0,30.31,NW,311,2.0,-999.0,65,-99.99,,,-99.99,0.090000,,2013-02-07 00:52:00,
2013-02-06 20:00:00,14.0,7.0,30.34,West,264,2.0,-999.0,74,-99.99,,,-99.99,0.130000,,2013-02-07 01:00:00,
2013-02-06 20:52:00,14.0,7.0,30.34,West,264,2.0,-999.0,74,-99.99,,,-99.99,0.130000,,2013-02-07 01:52:00,
2013-02-06 21:00:00,16.0,8.0,30.37,West,277,3.0,-999.0,70,-99.99,,,-99.99,0.130000,,2013-02-07 02:00:00,
2013-02-06 22:00:00,14.0,7.0,30.36,WSW,246,3.0,-999.0,76,-99.99,,,-99.99,0.070000,,2013-02-07 03:00:00,
2013-02-06 22:52:00,14.0,7.0,30.36,WSW,246,3.0,-999.0,76,-99.99,,,-99.99,0.070000,,2013-02-07 03:52:00,
2013-02-06 23:00:00,14.0,8.0,30.37,WSW,258,2.0,-999.0,76,-99.99,,,-99.99,0.070000,,2013-02-07 04:00:00,
2013-02-06 23:53:00,14.0,8.0,30.37,WSW,258,2.0,-999.0,76,-99.99,,,-99.99,0.070000,,2013-02-07 04:53:00,